Terminal Aerodrome Forecast
Issued by NWS

Home | Current Version | Previous Version | Text Only | Print | Product List | Glossary On
Versions: 1 2 3 4 5 6 7 8 9 10 11 12 13 14 15
000
FTUS43 KDTX 172300
TAFPTK
TAF
KPTK 172320Z 1800/1824 18010KT P6SM OVC150
     FM180900 25005KT 6SM -SHRA OVC050
     FM181200 27005KT 5SM -SHRA OVC040
     FM181500 30005KT P6SM SCT050=

USA.gov is the U.S. government's official web portal to all federal, state and local government web resources and services.